sensor_id;sensor_type;location;lat;lon;timestamp;pressure;altitude;pressure_sealevel;temperature
15701;BMP180;7950;42.744;23.174;2023-06-22T00:02:19;65556.66;;;-139.30
15701;BMP180;7950;42.744;23.174;2023-06-22T00:04:47;65556.66;;;-139.30
15701;BMP180;7950;42.744;23.174;2023-06-22T00:07:16;65556.66;;;-139.30
15701;BMP180;7950;42.744;23.174;2023-06-22T00:09:44;65556.66;;;-139.30
15701;BMP180;7950;42.744;23.174;2023-06-22T00:12:13;65556.66;;;-139.30
15701;BMP180;7950;42.744;23.174;2023-06-22T00:14:41;65556.66;;;-139.30
15701;BMP180;7950;42.744;23.174;2023-06-22T00:17:11;65556.66;;;-139.30
15701;BMP180;7950;42.744;23.174;2023-06-22T00:19:40;65556.66;;;-139.30
15701;BMP180;7950;42.744;23.174;2023-06-22T00:22:08;65556.66;;;-139.30
15701;BMP180;7950;42.744;23.174;2023-06-22T00:24:37;65556.66;;;-139.30
15701;BMP180;7950;42.744;23.174;2023-06-22T00:27:05;65556.66;;;-139.30
15701;BMP180;7950;42.744;23.174;2023-06-22T00:29:34;65556.66;;;-139.30
15701;BMP180;7950;42.744;23.174;2023-06-22T00:32:04;65556.66;;;-139.30
15701;BMP180;7950;42.744;23.174;2023-06-22T00:34:34;65556.66;;;-139.30
15701;BMP180;7950;42.744;23.174;2023-06-22T00:37:03;65556.66;;;-139.30
15701;BMP180;7950;42.744;23.174;2023-06-22T00:39:31;65556.66;;;-139.30
15701;BMP180;7950;42.744;23.174;2023-06-22T00:42:01;65556.66;;;-139.30
15701;BMP180;7950;42.744;23.174;2023-06-22T00:44:29;65556.66;;;-139.30
15701;BMP180;7950;42.744;23.174;2023-06-22T00:46:58;65556.66;;;-139.30
15701;BMP180;7950;42.744;23.174;2023-06-22T00:49:27;65556.66;;;-139.30
15701;BMP180;7950;42.744;23.174;2023-06-22T00:51:58;65556.66;;;-139.30
15701;BMP180;7950;42.744;23.174;2023-06-22T00:54:27;65556.66;;;-139.30
15701;BMP180;7950;42.744;23.174;2023-06-22T00:56:58;65556.66;;;-139.30
15701;BMP180;7950;42.744;23.174;2023-06-22T00:59:27;65556.66;;;-139.30
15701;BMP180;7950;42.744;23.174;2023-06-22T01:01:56;65556.66;;;-139.30
15701;BMP180;7950;42.744;23.174;2023-06-22T01:04:34;65556.66;;;-139.30
15701;BMP180;7950;42.744;23.174;2023-06-22T01:07:14;65556.66;;;-139.30
15701;BMP180;7950;42.744;23.174;2023-06-22T01:09:56;65556.66;;;-139.30
15701;BMP180;7950;42.744;23.174;2023-06-22T01:12:27;65556.66;;;-139.30
15701;BMP180;7950;42.744;23.174;2023-06-22T01:15:08;65556.66;;;-139.30
15701;BMP180;7950;42.744;23.174;2023-06-22T01:17:43;65556.66;;;-139.30
15701;BMP180;7950;42.744;23.174;2023-06-22T01:20:14;65556.66;;;-139.30
15701;BMP180;7950;42.744;23.174;2023-06-22T01:22:59;65556.66;;;-139.30
15701;BMP180;7950;42.744;23.174;2023-06-22T01:25:42;65556.66;;;-139.30
15701;BMP180;7950;42.744;23.174;2023-06-22T01:31:19;65556.66;;;-139.30
15701;BMP180;7950;42.744;23.174;2023-06-22T01:33:54;65556.66;;;-139.30
15701;BMP180;7950;42.744;23.174;2023-06-22T01:36:25;65556.66;;;-139.30
15701;BMP180;7950;42.744;23.174;2023-06-22T01:38:54;65556.66;;;-139.30
15701;BMP180;7950;42.744;23.174;2023-06-22T01:41:26;65556.66;;;-139.30
15701;BMP180;7950;42.744;23.174;2023-06-22T01:43:56;65556.66;;;-139.30
15701;BMP180;7950;42.744;23.174;2023-06-22T01:46:26;65556.66;;;-139.30
15701;BMP180;7950;42.744;23.174;2023-06-22T01:48:55;65556.66;;;-139.30
15701;BMP180;7950;42.744;23.174;2023-06-22T01:51:24;65556.66;;;-139.30
15701;BMP180;7950;42.744;23.174;2023-06-22T01:53:53;65556.66;;;-139.30
15701;BMP180;7950;42.744;23.174;2023-06-22T01:56:21;65556.66;;;-139.30
15701;BMP180;7950;42.744;23.174;2023-06-22T01:59:04;65556.66;;;-139.30
15701;BMP180;7950;42.744;23.174;2023-06-22T02:01:44;65556.66;;;-139.30
15701;BMP180;7950;42.744;23.174;2023-06-22T02:04:23;65556.66;;;-139.30
15701;BMP180;7950;42.744;23.174;2023-06-22T02:06:58;65556.66;;;-139.30
15701;BMP180;7950;42.744;23.174;2023-06-22T02:09:31;65556.66;;;-139.30
15701;BMP180;7950;42.744;23.174;2023-06-22T02:12:03;65556.66;;;-139.30
15701;BMP180;7950;42.744;23.174;2023-06-22T02:14:34;65556.66;;;-139.30
15701;BMP180;7950;42.744;23.174;2023-06-22T02:17:07;65556.66;;;-139.30
15701;BMP180;7950;42.744;23.174;2023-06-22T02:19:37;65556.66;;;-139.30
15701;BMP180;7950;42.744;23.174;2023-06-22T02:22:06;65556.66;;;-139.30
15701;BMP180;7950;42.744;23.174;2023-06-22T02:24:34;65556.66;;;-139.30
15701;BMP180;7950;42.744;23.174;2023-06-22T02:27:04;65556.66;;;-139.30
15701;BMP180;7950;42.744;23.174;2023-06-22T02:29:34;65556.66;;;-139.30
15701;BMP180;7950;42.744;23.174;2023-06-22T02:32:05;65556.66;;;-139.30
15701;BMP180;7950;42.744;23.174;2023-06-22T02:34:34;65556.66;;;-139.30
15701;BMP180;7950;42.744;23.174;2023-06-22T02:37:04;65556.66;;;-139.30
15701;BMP180;7950;42.744;23.174;2023-06-22T02:39:32;65556.66;;;-139.30
15701;BMP180;7950;42.744;23.174;2023-06-22T02:42:01;65556.66;;;-139.30
15701;BMP180;7950;42.744;23.174;2023-06-22T02:47:20;65556.66;;;-139.30
15701;BMP180;7950;42.744;23.174;2023-06-22T02:49:49;65556.66;;;-139.30
15701;BMP180;7950;42.744;23.174;2023-06-22T02:52:17;65556.66;;;-139.30
15701;BMP180;7950;42.744;23.174;2023-06-22T02:54:46;65556.66;;;-139.30
15701;BMP180;7950;42.744;23.174;2023-06-22T02:57:14;65556.66;;;-139.30
15701;BMP180;7950;42.744;23.174;2023-06-22T02:59:43;65556.66;;;-139.30
15701;BMP180;7950;42.744;23.174;2023-06-22T03:02:12;65556.66;;;-139.30
15701;BMP180;7950;42.744;23.174;2023-06-22T03:04:42;65556.66;;;-139.30
15701;BMP180;7950;42.744;23.174;2023-06-22T03:07:10;65556.66;;;-139.30
15701;BMP180;7950;42.744;23.174;2023-06-22T03:09:39;65556.66;;;-139.30
15701;BMP180;7950;42.744;23.174;2023-06-22T03:12:09;65556.66;;;-139.30
15701;BMP180;7950;42.744;23.174;2023-06-22T03:14:38;65556.66;;;-139.30
15701;BMP180;7950;42.744;23.174;2023-06-22T03:17:06;65556.66;;;-139.30
15701;BMP180;7950;42.744;23.174;2023-06-22T03:19:35;65556.66;;;-139.30
15701;BMP180;7950;42.744;23.174;2023-06-22T03:22:05;65556.66;;;-139.30
15701;BMP180;7950;42.744;23.174;2023-06-22T03:24:34;65556.66;;;-139.30
15701;BMP180;7950;42.744;23.174;2023-06-22T03:27:05;65556.66;;;-139.30
15701;BMP180;7950;42.744;23.174;2023-06-22T03:29:34;65556.66;;;-139.30
15701;BMP180;7950;42.744;23.174;2023-06-22T03:32:03;65556.66;;;-139.30
15701;BMP180;7950;42.744;23.174;2023-06-22T03:34:33;65556.66;;;-139.30
15701;BMP180;7950;42.744;23.174;2023-06-22T03:37:05;65556.66;;;-139.30
15701;BMP180;7950;42.744;23.174;2023-06-22T03:39:34;65556.66;;;-139.30
15701;BMP180;7950;42.744;23.174;2023-06-22T03:42:03;65556.66;;;-139.30
15701;BMP180;7950;42.744;23.174;2023-06-22T03:44:32;65556.66;;;-139.30
15701;BMP180;7950;42.744;23.174;2023-06-22T03:47:00;65556.66;;;-139.30
15701;BMP180;7950;42.744;23.174;2023-06-22T03:49:29;65556.66;;;-139.30
15701;BMP180;7950;42.744;23.174;2023-06-22T03:51:58;65556.66;;;-139.30
15701;BMP180;7950;42.744;23.174;2023-06-22T03:54:29;65556.66;;;-139.30
15701;BMP180;7950;42.744;23.174;2023-06-22T03:56:58;65556.66;;;-139.30
15701;BMP180;7950;42.744;23.174;2023-06-22T03:59:26;65556.66;;;-139.30
15701;BMP180;7950;42.744;23.174;2023-06-22T04:01:55;65556.66;;;-139.30
15701;BMP180;7950;42.744;23.174;2023-06-22T04:04:23;65556.66;;;-139.30
15701;BMP180;7950;42.744;23.174;2023-06-22T04:06:52;65556.66;;;-139.30
15701;BMP180;7950;42.744;23.174;2023-06-22T04:09:21;65556.66;;;-139.30
15701;BMP180;7950;42.744;23.174;2023-06-22T04:11:51;65556.66;;;-139.30
15701;BMP180;7950;42.744;23.174;2023-06-22T04:14:19;65556.66;;;-139.30
15701;BMP180;7950;42.744;23.174;2023-06-22T04:16:48;65556.66;;;-139.30
15701;BMP180;7950;42.744;23.174;2023-06-22T04:19:16;65556.66;;;-139.30
15701;BMP180;7950;42.744;23.174;2023-06-22T04:21:45;65556.66;;;-139.30
15701;BMP180;7950;42.744;23.174;2023-06-22T04:24:15;65556.66;;;-139.30
15701;BMP180;7950;42.744;23.174;2023-06-22T04:26:44;65556.66;;;-139.30
15701;BMP180;7950;42.744;23.174;2023-06-22T04:29:15;65556.66;;;-139.30
15701;BMP180;7950;42.744;23.174;2023-06-22T04:31:44;65556.66;;;-139.30
15701;BMP180;7950;42.744;23.174;2023-06-22T04:34:15;65556.66;;;-139.30
15701;BMP180;7950;42.744;23.174;2023-06-22T04:36:44;65556.66;;;-139.30
15701;BMP180;7950;42.744;23.174;2023-06-22T04:39:12;65556.66;;;-139.30
15701;BMP180;7950;42.744;23.174;2023-06-22T04:41:41;65556.66;;;-139.30
15701;BMP180;7950;42.744;23.174;2023-06-22T04:44:10;65556.66;;;-139.30
15701;BMP180;7950;42.744;23.174;2023-06-22T04:46:41;65556.66;;;-139.30
15701;BMP180;7950;42.744;23.174;2023-06-22T04:49:09;65556.66;;;-139.30
15701;BMP180;7950;42.744;23.174;2023-06-22T04:51:42;65556.66;;;-139.30
15701;BMP180;7950;42.744;23.174;2023-06-22T04:54:10;65556.66;;;-139.30
15701;BMP180;7950;42.744;23.174;2023-06-22T04:56:39;65556.66;;;-139.30
15701;BMP180;7950;42.744;23.174;2023-06-22T04:59:08;65556.66;;;-139.30
15701;BMP180;7950;42.744;23.174;2023-06-22T05:01:41;65556.66;;;-139.30
15701;BMP180;7950;42.744;23.174;2023-06-22T05:04:10;65556.66;;;-139.30
15701;BMP180;7950;42.744;23.174;2023-06-22T05:06:39;65556.66;;;-139.30
15701;BMP180;7950;42.744;23.174;2023-06-22T05:09:08;65556.66;;;-139.30
15701;BMP180;7950;42.744;23.174;2023-06-22T05:11:36;65556.66;;;-139.30
15701;BMP180;7950;42.744;23.174;2023-06-22T05:14:05;65556.66;;;-139.30
15701;BMP180;7950;42.744;23.174;2023-06-22T05:16:34;65556.66;;;-139.30
15701;BMP180;7950;42.744;23.174;2023-06-22T05:19:05;65556.66;;;-139.30
15701;BMP180;7950;42.744;23.174;2023-06-22T05:21:33;65556.66;;;-139.30
15701;BMP180;7950;42.744;23.174;2023-06-22T05:24:02;65556.66;;;-139.30
15701;BMP180;7950;42.744;23.174;2023-06-22T05:26:33;65556.66;;;-139.30
15701;BMP180;7950;42.744;23.174;2023-06-22T05:29:02;65556.66;;;-139.30
15701;BMP180;7950;42.744;23.174;2023-06-22T05:31:32;65556.66;;;-139.30
15701;BMP180;7950;42.744;23.174;2023-06-22T05:34:01;65556.66;;;-139.30
15701;BMP180;7950;42.744;23.174;2023-06-22T05:36:31;65556.66;;;-139.30
15701;BMP180;7950;42.744;23.174;2023-06-22T05:39:10;65556.66;;;-139.30
15701;BMP180;7950;42.744;23.174;2023-06-22T05:41:40;65556.66;;;-139.30
15701;BMP180;7950;42.744;23.174;2023-06-22T05:44:08;65556.66;;;-139.30
15701;BMP180;7950;42.744;23.174;2023-06-22T05:46:40;65556.66;;;-139.30
15701;BMP180;7950;42.744;23.174;2023-06-22T05:49:12;65556.66;;;-139.30
15701;BMP180;7950;42.744;23.174;2023-06-22T05:51:43;65556.66;;;-139.30
15701;BMP180;7950;42.744;23.174;2023-06-22T05:54:11;65556.66;;;-139.30
15701;BMP180;7950;42.744;23.174;2023-06-22T05:56:42;65556.66;;;-139.30
15701;BMP180;7950;42.744;23.174;2023-06-22T05:59:11;65556.66;;;-139.30
15701;BMP180;7950;42.744;23.174;2023-06-22T06:01:40;65556.66;;;-139.30
15701;BMP180;7950;42.744;23.174;2023-06-22T06:04:09;65556.66;;;-139.30
15701;BMP180;7950;42.744;23.174;2023-06-22T06:06:37;65556.66;;;-139.30
15701;BMP180;7950;42.744;23.174;2023-06-22T06:09:07;65556.66;;;-139.30
15701;BMP180;7950;42.744;23.174;2023-06-22T06:11:36;65556.66;;;-139.30
15701;BMP180;7950;42.744;23.174;2023-06-22T06:14:04;65556.66;;;-139.30
15701;BMP180;7950;42.744;23.174;2023-06-22T06:16:33;65556.66;;;-139.30
15701;BMP180;7950;42.744;23.174;2023-06-22T06:19:01;65556.66;;;-139.30
15701;BMP180;7950;42.744;23.174;2023-06-22T06:21:30;65556.66;;;-139.30
15701;BMP180;7950;42.744;23.174;2023-06-22T06:34:45;94872.31;;;24.05
15701;BMP180;7950;42.744;23.174;2023-06-22T06:37:13;94866.69;;;24.19
15701;BMP180;7950;42.744;23.174;2023-06-22T06:39:42;94864.22;;;24.14
15701;BMP180;7950;42.744;23.174;2023-06-22T06:42:11;94856.34;;;24.09
15701;BMP180;7950;42.744;23.174;2023-06-22T06:44:39;94869.28;;;24.07
15701;BMP180;7950;42.744;23.174;2023-06-22T06:47:09;94860.22;;;24.20
15701;BMP180;7950;42.744;23.174;2023-06-22T06:49:37;94865.19;;;24.38
15701;BMP180;7950;42.744;23.174;2023-06-22T06:52:08;94861.03;;;24.49
15701;BMP180;7950;42.744;23.174;2023-06-22T06:54:36;94865.19;;;24.38
15701;BMP180;7950;42.744;23.174;2023-06-22T06:57:05;94852.59;;;24.30
15701;BMP180;7950;42.744;23.174;2023-06-22T06:59:34;94849.91;;;24.30
15701;BMP180;7950;42.744;23.174;2023-06-22T07:02:02;94855.56;;;24.37
15701;BMP180;7950;42.744;23.174;2023-06-22T07:04:31;94847.41;;;24.54
15701;BMP180;7950;42.744;23.174;2023-06-22T07:07:02;94852.22;;;24.69
15701;BMP180;7950;42.744;23.174;2023-06-22T07:09:32;94849.06;;;24.88
15701;BMP180;7950;42.744;23.174;2023-06-22T07:12:00;94848.50;;;25.15
15701;BMP180;7950;42.744;23.174;2023-06-22T07:14:29;94861.47;;;25.33
15701;BMP180;7950;42.744;23.174;2023-06-22T07:16:59;94862.41;;;25.49
15701;BMP180;7950;42.744;23.174;2023-06-22T07:19:28;94854.59;;;25.68
15701;BMP180;7950;42.744;23.174;2023-06-22T07:21:57;94860.91;;;25.84
15701;BMP180;7950;42.744;23.174;2023-06-22T07:24:26;94855.13;;;26.06
15701;BMP180;7950;42.744;23.174;2023-06-22T07:26:56;94863.41;;;26.25
15701;BMP180;7950;42.744;23.174;2023-06-22T07:29:25;94855.81;;;26.39
15701;BMP180;7950;42.744;23.174;2023-06-22T07:31:53;94859.38;;;26.67
15701;BMP180;7950;42.744;23.174;2023-06-22T07:34:23;94855.19;;;26.82
15701;BMP180;7950;42.744;23.174;2023-06-22T07:36:52;94856.03;;;26.98
15701;BMP180;7950;42.744;23.174;2023-06-22T07:39:20;94856.31;;;27.20
15701;BMP180;7950;42.744;23.174;2023-06-22T07:41:53;94854.25;;;27.29
15701;BMP180;7950;42.744;23.174;2023-06-22T07:44:23;94854.97;;;27.42
15701;BMP180;7950;42.744;23.174;2023-06-22T07:46:52;94855.00;;;27.57
15701;BMP180;7950;42.744;23.174;2023-06-22T07:49:21;94852.16;;;27.66
15701;BMP180;7950;42.744;23.174;2023-06-22T07:51:50;94853.44;;;27.56
15701;BMP180;7950;42.744;23.174;2023-06-22T07:54:18;94853.50;;;27.44
15701;BMP180;7950;42.744;23.174;2023-06-22T07:56:47;94851.34;;;27.50
15701;BMP180;7950;42.744;23.174;2023-06-22T07:59:16;94845.25;;;27.53
15701;BMP180;7950;42.744;23.174;2023-06-22T08:01:46;94839.63;;;27.58
15701;BMP180;7950;42.744;23.174;2023-06-22T08:04:16;94830.66;;;27.69
15701;BMP180;7950;42.744;23.174;2023-06-22T08:06:45;94834.19;;;27.85
15701;BMP180;7950;42.744;23.174;2023-06-22T08:09:13;94827.66;;;28.02
15701;BMP180;7950;42.744;23.174;2023-06-22T08:11:42;94828.50;;;28.21
15701;BMP180;7950;42.744;23.174;2023-06-22T08:14:10;94828.84;;;28.35
15701;BMP180;7950;42.744;23.174;2023-06-22T08:16:39;94832.50;;;28.43
15701;BMP180;7950;42.744;23.174;2023-06-22T08:19:09;94824.06;;;28.44
15701;BMP180;7950;42.744;23.174;2023-06-22T08:21:37;94829.03;;;28.42
15701;BMP180;7950;42.744;23.174;2023-06-22T08:24:06;94828.19;;;28.57
15701;BMP180;7950;42.744;23.174;2023-06-22T08:26:35;94829.28;;;28.72
15701;BMP180;7950;42.744;23.174;2023-06-22T08:29:04;94823.03;;;28.87
15701;BMP180;7950;42.744;23.174;2023-06-22T08:31:33;94824.16;;;29.01
15701;BMP180;7950;42.744;23.174;2023-06-22T08:34:02;94820.53;;;29.13
15701;BMP180;7950;42.744;23.174;2023-06-22T08:36:32;94817.88;;;29.16
15701;BMP180;7950;42.744;23.174;2023-06-22T08:39:08;94819.94;;;29.23
15701;BMP180;7950;42.744;23.174;2023-06-22T08:41:37;94805.47;;;29.34
15701;BMP180;7950;42.744;23.174;2023-06-22T08:44:05;94810.31;;;29.45
15701;BMP180;7950;42.744;23.174;2023-06-22T08:46:34;94806.78;;;29.41
15701;BMP180;7950;42.744;23.174;2023-06-22T08:49:03;94802.25;;;29.48
15701;BMP180;7950;42.744;23.174;2023-06-22T08:51:33;94794.19;;;29.29
15701;BMP180;7950;42.744;23.174;2023-06-22T08:54:02;94793.50;;;29.13
15701;BMP180;7950;42.744;23.174;2023-06-22T08:56:31;94790.16;;;29.19
15701;BMP180;7950;42.744;23.174;2023-06-22T08:58:59;94802.88;;;29.38
15701;BMP180;7950;42.744;23.174;2023-06-22T09:01:28;94806.81;;;29.44
15701;BMP180;7950;42.744;23.174;2023-06-22T09:03:56;94794.50;;;29.47
15701;BMP180;7950;42.744;23.174;2023-06-22T09:06:27;94797.44;;;29.57
15701;BMP180;7950;42.744;23.174;2023-06-22T09:08:59;94798.97;;;29.77
15701;BMP180;7950;42.744;23.174;2023-06-22T09:11:28;94791.38;;;29.86
15701;BMP180;7950;42.744;23.174;2023-06-22T09:13:56;94791.69;;;30.07
15701;BMP180;7950;42.744;23.174;2023-06-22T09:16:25;94788.94;;;30.26
15701;BMP180;7950;42.744;23.174;2023-06-22T09:18:53;94797.94;;;30.34
15701;BMP180;7950;42.744;23.174;2023-06-22T09:21:23;94799.09;;;30.33
15701;BMP180;7950;42.744;23.174;2023-06-22T09:26:59;94795.03;;;30.46
15701;BMP180;7950;42.744;23.174;2023-06-22T09:33:10;94794.69;;;30.51
15701;BMP180;7950;42.744;23.174;2023-06-22T09:35:39;94794.03;;;30.57
15701;BMP180;7950;42.744;23.174;2023-06-22T09:38:07;94793.94;;;30.54
15701;BMP180;7950;42.744;23.174;2023-06-22T09:40:36;94789.69;;;30.53
15701;BMP180;7950;42.744;23.174;2023-06-22T09:43:09;94784.63;;;30.51
15701;BMP180;7950;42.744;23.174;2023-06-22T09:45:37;94786.59;;;30.51
15701;BMP180;7950;42.744;23.174;2023-06-22T09:48:06;94787.78;;;30.53
15701;BMP180;7950;42.744;23.174;2023-06-22T09:50:37;94777.34;;;30.55
15701;BMP180;7950;42.744;23.174;2023-06-22T09:53:05;94778.63;;;30.65
15701;BMP180;7950;42.744;23.174;2023-06-22T09:55:34;94774.47;;;30.71
15701;BMP180;7950;42.744;23.174;2023-06-22T09:58:02;94772.28;;;30.80
15701;BMP180;7950;42.744;23.174;2023-06-22T10:00:32;94777.00;;;30.86
15701;BMP180;7950;42.744;23.174;2023-06-22T10:03:01;94772.44;;;30.94
15701;BMP180;7950;42.744;23.174;2023-06-22T10:05:30;94771.94;;;30.85
15701;BMP180;7950;42.744;23.174;2023-06-22T10:07:59;94769.16;;;30.78
15701;BMP180;7950;42.744;23.174;2023-06-22T10:10:28;94766.63;;;30.92
15701;BMP180;7950;42.744;23.174;2023-06-22T10:13:04;94763.34;;;31.09
15701;BMP180;7950;42.744;23.174;2023-06-22T10:15:37;94761.47;;;31.16
15701;BMP180;7950;42.744;23.174;2023-06-22T10:18:05;94756.94;;;31.24
15701;BMP180;7950;42.744;23.174;2023-06-22T10:20:34;94758.56;;;31.32
15701;BMP180;7950;42.744;23.174;2023-06-22T10:23:03;94757.41;;;31.33
15701;BMP180;7950;42.744;23.174;2023-06-22T10:25:31;94746.84;;;31.21
15701;BMP180;7950;42.744;23.174;2023-06-22T10:28:00;94758.66;;;31.06
15701;BMP180;7950;42.744;23.174;2023-06-22T10:30:29;94758.09;;;30.90
15701;BMP180;7950;42.744;23.174;2023-06-22T10:32:59;94755.16;;;30.72
15701;BMP180;7950;42.744;23.174;2023-06-22T10:35:27;94756.31;;;30.71
15701;BMP180;7950;42.744;23.174;2023-06-22T10:37:56;94745.94;;;30.77
15701;BMP180;7950;42.744;23.174;2023-06-22T10:40:25;94751.88;;;30.89
15701;BMP180;7950;42.744;23.174;2023-06-22T10:42:53;94733.88;;;31.04
15701;BMP180;7950;42.744;23.174;2023-06-22T10:45:22;94734.22;;;31.02
15701;BMP180;7950;42.744;23.174;2023-06-22T10:47:51;94730.41;;;31.07
15701;BMP180;7950;42.744;23.174;2023-06-22T10:50:21;94738.19;;;31.12
15701;BMP180;7950;42.744;23.174;2023-06-22T10:52:51;94737.97;;;31.24
15701;BMP180;7950;42.744;23.174;2023-06-22T10:55:19;94736.44;;;31.26
15701;BMP180;7950;42.744;23.174;2023-06-22T10:57:48;94735.94;;;31.17
15701;BMP180;7950;42.744;23.174;2023-06-22T11:00:17;94731.22;;;31.11
15701;BMP180;7950;42.744;23.174;2023-06-22T11:02:45;94734.28;;;31.09
15701;BMP180;7950;42.744;23.174;2023-06-22T11:05:14;94729.69;;;31.13
15701;BMP180;7950;42.744;23.174;2023-06-22T11:07:44;94734.00;;;31.18
15701;BMP180;7950;42.744;23.174;2023-06-22T11:10:13;94735.75;;;31.00
15701;BMP180;7950;42.744;23.174;2023-06-22T11:12:42;94730.50;;;31.17
15701;BMP180;7950;42.744;23.174;2023-06-22T11:15:11;94727.78;;;31.17
15701;BMP180;7950;42.744;23.174;2023-06-22T11:17:40;94722.84;;;31.23
15701;BMP180;7950;42.744;23.174;2023-06-22T11:20:10;94719.28;;;31.15
15701;BMP180;7950;42.744;23.174;2023-06-22T11:22:39;94717.31;;;31.16
15701;BMP180;7950;42.744;23.174;2023-06-22T11:25:10;94715.72;;;31.08
15701;BMP180;7950;42.744;23.174;2023-06-22T11:27:40;94710.66;;;31.06
15701;BMP180;7950;42.744;23.174;2023-06-22T11:30:09;94710.84;;;31.24
15701;BMP180;7950;42.744;23.174;2023-06-22T11:32:38;94714.03;;;31.33
15701;BMP180;7950;42.744;23.174;2023-06-22T11:35:07;94715.31;;;31.42
15701;BMP180;7950;42.744;23.174;2023-06-22T11:37:36;94711.44;;;31.47
15701;BMP180;7950;42.744;23.174;2023-06-22T11:40:06;94714.22;;;31.50
15701;BMP180;7950;42.744;23.174;2023-06-22T11:42:38;94705.09;;;31.29
15701;BMP180;7950;42.744;23.174;2023-06-22T11:45:07;94708.22;;;31.31
15701;BMP180;7950;42.744;23.174;2023-06-22T11:47:36;94708.34;;;31.45
15701;BMP180;7950;42.744;23.174;2023-06-22T11:50:08;94700.59;;;31.47
15701;BMP180;7950;42.744;23.174;2023-06-22T11:52:36;94688.38;;;31.67
15701;BMP180;7950;42.744;23.174;2023-06-22T11:55:06;94689.38;;;31.92
15701;BMP180;7950;42.744;23.174;2023-06-22T11:57:38;94698.00;;;32.08
15701;BMP180;7950;42.744;23.174;2023-06-22T12:00:08;94693.22;;;31.87
15701;BMP180;7950;42.744;23.174;2023-06-22T12:02:44;94711.59;;;31.61
15701;BMP180;7950;42.744;23.174;2023-06-22T12:05:13;94710.50;;;31.29
15701;BMP180;7950;42.744;23.174;2023-06-22T12:07:42;94717.94;;;30.99
15701;BMP180;7950;42.744;23.174;2023-06-22T12:10:11;94748.97;;;29.94
15701;BMP180;7950;42.744;23.174;2023-06-22T12:12:41;94745.00;;;28.09
15701;BMP180;7950;42.744;23.174;2023-06-22T12:26:36;94849.69;;;23.77
15701;BMP180;7950;42.744;23.174;2023-06-22T12:29:05;94850.13;;;23.42
15701;BMP180;7950;42.744;23.174;2023-06-22T12:43:55;94758.06;;;23.17
15701;BMP180;7950;42.744;23.174;2023-06-22T12:46:23;94767.47;;;23.32
15701;BMP180;7950;42.744;23.174;2023-06-22T12:48:52;94759.88;;;23.42
15701;BMP180;7950;42.744;23.174;2023-06-22T12:51:21;94753.75;;;23.33
15701;BMP180;7950;42.744;23.174;2023-06-22T12:53:50;94751.25;;;23.28
15701;BMP180;7950;42.744;23.174;2023-06-22T12:56:19;94747.28;;;23.34
15701;BMP180;7950;42.744;23.174;2023-06-22T12:58:47;94746.03;;;23.40
15701;BMP180;7950;42.744;23.174;2023-06-22T13:01:17;94751.88;;;23.34
15701;BMP180;7950;42.744;23.174;2023-06-22T13:03:46;94740.09;;;23.17
15701;BMP180;7950;42.744;23.174;2023-06-22T13:06:15;94744.19;;;23.15
15701;BMP180;7950;42.744;23.174;2023-06-22T13:08:43;94752.06;;;23.11
15701;BMP180;7950;42.744;23.174;2023-06-22T13:11:32;94760.25;;;23.15
15701;BMP180;7950;42.744;23.174;2023-06-22T13:14:00;94773.75;;;23.18
15701;BMP180;7950;42.744;23.174;2023-06-22T13:16:34;94784.97;;;23.12
15701;BMP180;7950;42.744;23.174;2023-06-22T13:19:02;94792.22;;;23.03
15701;BMP180;7950;42.744;23.174;2023-06-22T13:21:31;94791.75;;;23.01
15701;BMP180;7950;42.744;23.174;2023-06-22T13:24:01;94794.31;;;22.89
15701;BMP180;7950;42.744;23.174;2023-06-22T13:38:38;94759.69;;;22.84
15701;BMP180;7950;42.744;23.174;2023-06-22T13:41:06;94750.88;;;22.92
15701;BMP180;7950;42.744;23.174;2023-06-22T13:43:35;94736.97;;;23.07
15701;BMP180;7950;42.744;23.174;2023-06-22T13:46:04;94738.38;;;23.13
15701;BMP180;7950;42.744;23.174;2023-06-22T13:48:32;94738.38;;;23.13
15701;BMP180;7950;42.744;23.174;2023-06-22T13:51:01;94737.13;;;23.10
15701;BMP180;7950;42.744;23.174;2023-06-22T13:53:29;94740.75;;;23.06
15701;BMP180;7950;42.744;23.174;2023-06-22T14:07:58;94788.19;;;22.88
15701;BMP180;7950;42.744;23.174;2023-06-22T14:10:26;94782.66;;;22.85
15701;BMP180;7950;42.744;23.174;2023-06-22T14:12:55;94778.75;;;22.74
15701;BMP180;7950;42.744;23.174;2023-06-22T14:15:23;94778.13;;;22.68
15701;BMP180;7950;42.744;23.174;2023-06-22T14:17:52;94776.38;;;22.72
15701;BMP180;7950;42.744;23.174;2023-06-22T14:20:21;94792.59;;;22.76
15701;BMP180;7950;42.744;23.174;2023-06-22T14:22:49;94797.63;;;22.86
15701;BMP180;7950;42.744;23.174;2023-06-22T14:25:19;94789.88;;;22.93
15701;BMP180;7950;42.744;23.174;2023-06-22T14:27:48;94807.19;;;23.04
15701;BMP180;7950;42.744;23.174;2023-06-22T14:30:16;94813.16;;;23.09
15701;BMP180;7950;42.744;23.174;2023-06-22T14:32:45;94820.09;;;23.19
15701;BMP180;7950;42.744;23.174;2023-06-22T14:35:13;94812.34;;;23.17
15701;BMP180;7950;42.744;23.174;2023-06-22T14:37:42;94808.75;;;23.22
15701;BMP180;7950;42.744;23.174;2023-06-22T14:40:12;94809.69;;;23.26
15701;BMP180;7950;42.744;23.174;2023-06-22T14:42:42;94801.94;;;23.33
15701;BMP180;7950;42.744;23.174;2023-06-22T14:45:12;94807.97;;;23.30
15701;BMP180;7950;42.744;23.174;2023-06-22T14:47:40;94795.78;;;23.41
15701;BMP180;7950;42.744;23.174;2023-06-22T14:50:09;94787.69;;;23.58
15701;BMP180;7950;42.744;23.174;2023-06-22T15:03:36;94770.81;;;23.66
15701;BMP180;7950;42.744;23.174;2023-06-22T15:06:05;94766.03;;;23.72
15701;BMP180;7950;42.744;23.174;2023-06-22T15:08:34;94764.47;;;23.71
15701;BMP180;7950;42.744;23.174;2023-06-22T15:11:05;94756.75;;;23.69
15701;BMP180;7950;42.744;23.174;2023-06-22T15:13:34;94747.75;;;23.74
15701;BMP180;7950;42.744;23.174;2023-06-22T15:16:03;94746.75;;;23.78
15701;BMP180;7950;42.744;23.174;2023-06-22T15:18:32;94742.44;;;23.94
15701;BMP180;7950;42.744;23.174;2023-06-22T15:21:04;94743.97;;;24.04
15701;BMP180;7950;42.744;23.174;2023-06-22T15:23:34;94747.81;;;24.15
15701;BMP180;7950;42.744;23.174;2023-06-22T15:26:03;94746.78;;;24.28
15701;BMP180;7950;42.744;23.174;2023-06-22T15:28:33;94753.13;;;24.44
15701;BMP180;7950;42.744;23.174;2023-06-22T15:31:06;94751.13;;;24.61
15701;BMP180;7950;42.744;23.174;2023-06-22T15:33:34;94759.09;;;24.70
15701;BMP180;7950;42.744;23.174;2023-06-22T15:36:06;94756.16;;;24.95